Time;durP1;ratioP1;P1;durP2;ratioP2;P2;SDS_P1;SDS_P2;PMS_P1;PMS_P2;Temp;Humidity;BMP_temperature;BMP_pressure;BME280_temperature;BME280_humidity;BME280_pressure;Samples;Min_cycle;Max_cycle;Signal;HPM_P1;HPM_P2
2021/11/15 00:02:13;;;;;;;1.10;1.10;;;7.60;7.50;;;;;;5053374;28;20181;-67
2021/11/15 00:04:40;;;;;;;8.23;4.80;;;7.50;1.00;;;;;;5055188;28;20188;-68
2021/11/15 00:07:06;;;;;;;8.55;4.22;;;7.60;1.00;;;;;;5053284;28;20217;-67
2021/11/15 00:09:31;;;;;;;22.33;7.63;;;7.60;1.00;;;;;;5053287;28;20500;-67
2021/11/15 00:11:57;;;;;;;13.63;7.77;;;7.50;5.30;;;;;;5054060;28;20177;-67
2021/11/15 00:14:23;;;;;;;6.20;4.20;;;7.60;1.00;;;;;;5053390;28;20423;-67
2021/11/15 00:16:49;;;;;;;6.53;1.27;;;7.40;1.00;;;;;;5053405;28;20192;-66
2021/11/15 00:19:15;;;;;;;5.53;4.23;;;7.50;1.00;;;;;;5052890;28;20260;-65
2021/11/15 00:21:41;;;;;;;18.00;4.65;;;7.50;1.00;;;;;;5069941;28;20525;-66
2021/11/15 00:24:12;;;;;;;18.85;8.95;;;7.60;1.00;;;;;;5053753;28;20172;-67
2021/11/15 00:26:37;;;;;;;0.43;0.43;;;7.60;1.00;;;;;;5055048;28;20215;-66
2021/11/15 00:29:03;;;;;;;5.20;3.33;;;7.60;1.00;;;;;;5056590;28;20264;-65
2021/11/15 00:31:29;;;;;;;1.70;1.30;;;7.50;1.00;;;;;;5057279;28;20181;-67
2021/11/15 00:33:55;;;;;;;5.73;3.13;;;7.50;1.00;;;;;;5056636;28;20431;-66
2021/11/15 00:36:22;;;;;;;6.20;2.72;;;7.50;1.00;;;;;;5056804;28;20196;-67
2021/11/15 00:38:48;;;;;;;7.80;6.78;;;7.60;1.00;;;;;;5056698;28;20196;-66
2021/11/15 00:41:15;;;;;;;2.08;1.98;;;7.70;2.00;;;;;;5056334;28;20238;-67
2021/11/15 00:43:41;;;;;;;3.63;2.40;;;7.80;1.00;;;;;;5055595;28;20181;-66
2021/11/15 00:46:06;;;;;;;3.70;3.40;;;7.80;1.00;;;;;;5055174;28;20219;-66
2021/11/15 00:48:32;;;;;;;6.33;3.70;;;7.60;1.00;;;;;;5056703;28;20435;-67
2021/11/15 00:50:58;;;;;;;4.40;3.97;;;7.60;1.00;;;;;;5055272;28;20181;-65
2021/11/15 00:53:23;;;;;;;9.93;3.40;;;7.70;1.00;;;;;;5056715;28;20196;-65
2021/11/15 00:55:49;;;;;;;2.83;2.63;;;7.70;1.00;;;;;;5056633;28;20493;-66
2021/11/15 00:58:15;;;;;;;19.63;7.83;;;7.60;1.00;;;;;;5055467;28;20536;-66
2021/11/15 01:00:42;;;;;;;6.30;2.38;;;7.60;1.00;;;;;;5056446;28;20586;-66
2021/11/15 01:03:10;;;;;;;4.63;4.30;;;7.60;1.00;;;;;;5056233;28;20185;-66
2021/11/15 01:05:38;;;;;;;7.30;4.45;;;7.60;1.00;;;;;;5056049;28;20216;-66
2021/11/15 01:08:05;;;;;;;11.18;6.97;;;7.50;1.00;;;;;;5055906;28;20188;-65
2021/11/15 01:10:31;;;;;;;13.38;5.68;;;7.50;1.00;;;;;;5056424;28;20181;-66
2021/11/15 01:12:57;;;;;;;2.55;2.38;;;7.50;7.20;;;;;;5056218;28;20177;-66
2021/11/15 01:15:27;;;;;;;1.93;1.83;;;7.50;18.30;;;;;;5056017;28;20180;-66
2021/11/15 01:17:53;;;;;;;0.68;0.68;;;7.60;12.70;;;;;;5055754;28;20208;-65
2021/11/15 01:20:23;;;;;;;9.80;7.03;;;7.80;7.60;;;;;;5055910;28;20200;-66
2021/11/15 01:22:49;;;;;;;2.85;2.63;;;7.80;1.00;;;;;;5055480;28;20212;-66
2021/11/15 01:25:15;;;;;;;4.70;3.73;;;7.70;1.00;;;;;;5055747;28;20211;-66
2021/11/15 01:27:41;;;;;;;11.57;7.00;;;7.70;1.00;;;;;;5055565;28;20192;-66
2021/11/15 01:30:10;;;;;;;4.90;4.47;;;7.70;1.00;;;;;;5055203;28;20589;-66
2021/11/15 01:32:37;;;;;;;0.60;0.60;;;7.70;1.00;;;;;;5055421;28;20434;-66
2021/11/15 01:35:05;;;;;;;4.20;2.20;;;7.60;1.00;;;;;;5056010;28;20184;-66
2021/11/15 01:37:30;;;;;;;9.75;3.92;;;7.70;1.00;;;;;;5054910;28;20181;-66
2021/11/15 01:39:56;;;;;;;6.33;4.77;;;7.60;1.00;;;;;;5055369;28;20518;-66
2021/11/15 01:42:22;;;;;;;3.20;2.55;;;7.60;1.00;;;;;;5055126;28;20192;-66
2021/11/15 01:44:48;;;;;;;1.25;1.25;;;7.60;1.00;;;;;;5055184;28;20723;-66
2021/11/15 01:47:14;;;;;;;9.20;4.77;;;7.80;1.00;;;;;;5055013;28;20296;-66
2021/11/15 01:49:40;;;;;;;6.47;5.93;;;7.70;1.00;;;;;;5054896;28;20200;-66
2021/11/15 01:52:06;;;;;;;1.13;1.03;;;7.50;1.00;;;;;;5054887;28;20215;-65
2021/11/15 01:54:31;;;;;;;11.57;3.75;;;7.60;1.00;;;;;;5053847;28;20466;-65
2021/11/15 01:56:57;;;;;;;8.80;4.27;;;7.60;1.00;;;;;;5054257;28;20177;-66
2021/11/15 01:59:23;;;;;;;0.73;0.73;;;7.60;8.60;;;;;;5054090;28;20630;-66
2021/11/15 02:01:48;;;;;;;5.30;5.10;;;7.70;11.20;;;;;;5055298;28;20173;-66
2021/11/15 02:04:14;;;;;;;16.27;7.67;;;7.70;1.00;;;;;;5054020;28;20194;-66
2021/11/15 02:06:39;;;;;;;0.50;0.50;;;7.70;1.00;;;;;;5054875;28;20220;-66
2021/11/15 02:09:06;;;;;;;8.40;6.00;;;7.70;1.00;;;;;;5054990;28;20187;-66
2021/11/15 02:11:33;;;;;;;8.27;4.78;;;7.60;1.00;;;;;;5053874;28;20185;-66
2021/11/15 02:13:59;;;;;;;2.33;2.22;;;7.60;1.00;;;;;;5054645;28;20173;-66
2021/11/15 02:16:25;;;;;;;6.63;4.40;;;7.70;9.40;;;;;;5053613;28;20188;-65
2021/11/15 02:18:52;;;;;;;11.63;8.33;;;7.50;1.00;;;;;;5054685;28;20185;-65
2021/11/15 02:21:18;;;;;;;29.75;14.70;;;7.60;14.60;;;;;;5055214;28;20207;-66
2021/11/15 02:23:44;;;;;;;5.80;3.43;;;7.80;15.10;;;;;;5055223;28;20181;-66
2021/11/15 02:26:13;;;;;;;1.45;1.35;;;7.70;1.00;;;;;;5054537;28;20239;-66
2021/11/15 02:28:41;;;;;;;1.92;1.75;;;7.80;1.00;;;;;;5053906;28;20219;-66
2021/11/15 02:31:09;;;;;;;7.00;4.00;;;7.80;1.00;;;;;;5054189;28;20169;-65
2021/11/15 02:33:36;;;;;;;3.05;2.92;;;7.70;1.00;;;;;;5054596;28;20679;-65
2021/11/15 02:36:03;;;;;;;9.90;5.65;;;7.60;1.00;;;;;;5054425;28;20687;-66
2021/11/15 02:38:29;;;;;;;3.15;2.97;;;7.60;1.90;;;;;;5054520;28;20626;-66
2021/11/15 02:40:55;;;;;;;0.80;0.80;;;7.70;1.00;;;;;;5054029;28;20260;-66
2021/11/15 02:43:21;;;;;;;27.00;14.10;;;7.70;1.00;;;;;;5054920;28;20767;-66
2021/11/15 02:45:47;;;;;;;13.73;7.80;;;7.50;1.00;;;;;;5054305;28;20212;-66
2021/11/15 02:48:14;;;;;;;15.20;7.53;;;7.50;28.20;;;;;;5053752;28;20177;-66
2021/11/15 02:50:39;;;;;;;9.88;6.22;;;7.40;47.50;;;;;;5052287;28;20173;-66
2021/11/15 02:53:08;;;;;;;32.57;12.17;;;7.40;62.50;;;;;;5054150;28;20189;-66
2021/11/15 02:55:35;;;;;;;6.13;5.65;;;7.40;68.10;;;;;;5054492;28;20262;-66
2021/11/15 02:58:04;;;;;;;10.20;4.60;;;7.50;73.10;;;;;;5054398;28;20180;-66
2021/11/15 03:00:53;;;;;;;18.55;4.88;;;7.60;54.50;;;;;;5054017;28;20184;-66
2021/11/15 03:03:20;;;;;;;9.90;6.75;;;7.60;31.00;;;;;;5046520;28;20242;-66
2021/11/15 03:05:49;;;;;;;2.28;2.17;;;7.50;22.70;;;;;;5054205;28;20200;-66
2021/11/15 03:08:17;;;;;;;6.05;3.25;;;7.40;17.50;;;;;;5053578;28;20185;-66
2021/11/15 03:10:44;;;;;;;10.48;5.68;;;7.40;14.20;;;;;;5053687;28;20570;-66
2021/11/15 03:13:12;;;;;;;7.32;5.15;;;7.30;14.30;;;;;;5053400;28;20172;-66
2021/11/15 03:15:41;;;;;;;8.55;5.85;;;7.20;31.00;;;;;;5053978;28;20187;-66
2021/11/15 03:18:10;;;;;;;5.53;4.95;;;7.20;33.00;;;;;;5053977;28;20211;-66
2021/11/15 03:20:41;;;;;;;7.80;2.70;;;7.30;39.50;;;;;;5053596;28;20536;-66
2021/11/15 03:23:09;;;;;;;3.92;3.13;;;7.20;18.10;;;;;;5053951;28;20262;-66
2021/11/15 03:25:35;;;;;;;17.73;8.48;;;7.30;28.70;;;;;;5053810;28;20176;-65
2021/11/15 03:28:01;;;;;;;8.87;5.73;;;7.20;49.50;;;;;;5053920;28;20173;-65
2021/11/15 03:30:27;;;;;;;0.47;0.47;;;7.20;87.60;;;;;;5053948;28;20426;-66
2021/11/15 03:32:54;;;;;;;8.00;4.67;;;7.30;79.60;;;;;;5053612;28;20419;-65
2021/11/15 03:35:20;;;;;;;7.80;5.55;;;7.30;67.90;;;;;;5054042;28;20732;-65
2021/11/15 03:37:46;;;;;;;1.60;1.23;;;7.30;53.30;;;;;;5053858;28;20176;-66
2021/11/15 03:40:15;;;;;;;6.03;4.80;;;7.30;86.80;;;;;;5053563;28;20184;-66
2021/11/15 03:42:42;;;;;;;0.30;0.30;;;7.30;99.90;;;;;;5054438;28;20865;-66
2021/11/15 03:45:09;;;;;;;7.15;3.53;;;7.30;99.90;;;;;;5053067;28;20531;-65
2021/11/15 03:47:35;;;;;;;5.75;5.35;;;7.40;99.90;;;;;;5053584;28;20215;-66
2021/11/15 03:50:02;;;;;;;3.63;2.05;;;7.40;96.20;;;;;;5053520;28;20172;-65
2021/11/15 03:52:28;;;;;;;9.50;7.18;;;7.40;94.50;;;;;;5053528;28;20246;-66
2021/11/15 03:54:54;;;;;;;3.83;3.47;;;7.30;85.70;;;;;;5052287;28;20185;-66
2021/11/15 03:57:19;;;;;;;8.27;6.70;;;7.30;98.30;;;;;;5053070;28;20265;-66
2021/11/15 03:59:45;;;;;;;17.87;4.90;;;7.30;95.10;;;;;;5051754;28;20626;-66
2021/11/15 04:02:11;;;;;;;10.10;6.23;;;7.30;97.70;;;;;;5057020;28;20561;-65
2021/11/15 04:04:53;;;;;;;4.78;4.38;;;7.30;73.20;;;;;;5057275;28;20215;-66
2021/11/15 04:07:37;;;;;;;10.13;4.63;;;7.20;86.60;;;;;;5057514;28;20208;-66
2021/11/15 04:10:10;;;;;;;6.53;4.78;;;7.10;59.70;;;;;;5057329;28;20191;-65
2021/11/15 04:12:37;;;;;;;10.32;6.28;;;7.00;25.20;;;;;;5055936;28;20181;-65
2021/11/15 04:15:03;;;;;;;5.30;3.65;;;6.80;21.70;;;;;;5057085;28;20184;-66
2021/11/15 04:17:29;;;;;;;19.08;10.15;;;6.80;16.90;;;;;;5057199;28;20181;-65
2021/11/15 04:19:55;;;;;;;17.98;8.32;;;6.70;1.00;;;;;;5055692;28;20210;-66
2021/11/15 04:22:20;;;;;;;2.50;2.10;;;6.70;13.10;;;;;;5056690;28;20520;-65
2021/11/15 04:24:46;;;;;;;8.67;6.37;;;6.80;26.60;;;;;;5056491;28;20443;-65
2021/11/15 04:27:12;;;;;;;9.65;6.40;;;6.80;10.00;;;;;;5056843;28;20223;-66
2021/11/15 04:29:38;;;;;;;3.20;2.90;;;6.80;8.90;;;;;;5056467;28;20173;-65
2021/11/15 04:32:05;;;;;;;12.60;7.13;;;6.90;1.00;;;;;;5057166;28;20172;-65
2021/11/15 04:34:31;;;;;;;3.05;2.70;;;6.80;1.00;;;;;;5056458;28;20636;-66
2021/11/15 04:36:56;;;;;;;8.93;4.13;;;6.70;1.00;;;;;;5056856;28;20177;-65
2021/11/15 04:39:22;;;;;;;14.83;7.23;;;6.70;1.00;;;;;;5056051;28;20177;-66
2021/11/15 04:41:48;;;;;;;4.43;2.83;;;6.80;1.00;;;;;;5056622;28;20185;-65
2021/11/15 04:44:13;;;;;;;2.60;2.50;;;6.80;1.00;;;;;;5056408;28;20268;-66
2021/11/15 04:46:39;;;;;;;10.50;2.97;;;6.80;1.00;;;;;;5056072;28;20208;-66
2021/11/15 04:49:04;;;;;;;6.40;5.43;;;6.80;1.00;;;;;;5055910;28;20238;-65
2021/11/15 04:51:30;;;;;;;3.60;2.53;;;6.90;1.00;;;;;;5056629;28;20610;-65
2021/11/15 04:53:56;;;;;;;1.57;1.27;;;6.90;1.00;;;;;;5055896;28;20645;-66
2021/11/15 04:56:22;;;;;;;4.47;3.17;;;7.10;1.00;;;;;;5056013;28;20903;-65
2021/11/15 04:58:49;;;;;;;10.83;4.80;;;7.20;1.00;;;;;;5055916;28;20200;-65
2021/11/15 05:01:15;;;;;;;7.78;5.40;;;7.10;1.00;;;;;;5056015;28;20644;-66
2021/11/15 05:03:40;;;;;;;4.90;3.07;;;6.90;1.00;;;;;;5055848;28;20185;-66
2021/11/15 05:06:06;;;;;;;8.47;4.73;;;7.00;1.00;;;;;;5055735;28;20242;-65
2021/11/15 05:08:32;;;;;;;6.40;5.87;;;7.00;1.00;;;;;;5055592;28;20181;-65
2021/11/15 05:10:58;;;;;;;15.07;5.80;;;6.90;1.00;;;;;;5056467;28;20903;-65
2021/11/15 05:13:24;;;;;;;8.20;6.93;;;6.90;4.10;;;;;;5054577;28;20227;-65
2021/11/15 05:15:49;;;;;;;8.37;7.53;;;6.90;27.30;;;;;;5055961;28;20180;-66
2021/11/15 05:18:15;;;;;;;1.40;0.87;;;6.90;21.90;;;;;;5054282;28;20211;-66
2021/11/15 05:20:41;;;;;;;9.68;9.02;;;6.90;19.20;;;;;;5055538;28;20181;-66
2021/11/15 05:23:07;;;;;;;3.43;2.60;;;6.80;25.40;;;;;;5054239;28;20637;-66
2021/11/15 05:25:33;;;;;;;2.20;2.10;;;6.90;38.40;;;;;;5055547;28;20177;-66
2021/11/15 05:27:58;;;;;;;12.68;4.13;;;7.00;26.60;;;;;;5055307;28;20429;-66
2021/11/15 05:30:24;;;;;;;0.20;0.20;;;7.00;8.50;;;;;;5054477;28;20188;-65
2021/11/15 05:32:51;;;;;;;1.60;1.50;;;7.10;9.40;;;;;;5055381;28;20185;-66
2021/11/15 05:35:18;;;;;;;0.75;0.75;;;7.00;1.00;;;;;;5055326;28;20250;-65
2021/11/15 05:37:44;;;;;;;9.15;3.17;;;7.10;1.00;;;;;;5055288;28;20188;-65
2021/11/15 05:40:12;;;;;;;5.45;5.13;;;6.90;1.00;;;;;;5055217;28;20176;-65
2021/11/15 05:42:38;;;;;;;1.15;1.05;;;7.00;1.00;;;;;;5055310;28;20647;-65
2021/11/15 05:45:06;;;;;;;11.33;5.77;;;6.90;1.00;;;;;;5055135;28;20246;-65
2021/11/15 05:47:31;;;;;;;4.60;3.60;;;6.90;1.00;;;;;;5054906;28;20216;-65
2021/11/15 05:49:57;;;;;;;4.13;3.93;;;7.00;1.00;;;;;;5053760;28;20188;-65
2021/11/15 05:52:23;;;;;;;1.23;1.13;;;7.00;1.00;;;;;;5055115;28;20164;-65
2021/11/15 05:54:50;;;;;;;1.25;1.15;;;6.90;1.00;;;;;;5055816;28;20222;-65
2021/11/15 05:57:16;;;;;;;8.48;0.60;;;7.00;1.00;;;;;;5055080;28;20260;-65
2021/11/15 05:59:43;;;;;;;15.55;9.35;;;7.10;1.00;;;;;;5054707;28;20625;-65
2021/11/15 06:02:09;;;;;;;6.18;2.85;;;7.00;1.00;;;;;;5054962;28;20188;-65
2021/11/15 06:04:35;;;;;;;6.57;6.17;;;7.10;1.00;;;;;;5054686;28;20176;-65
2021/11/15 06:07:01;;;;;;;4.27;4.07;;;7.10;1.00;;;;;;5055382;28;20463;-65
2021/11/15 06:09:26;;;;;;;0.73;0.73;;;7.00;1.00;;;;;;5054744;28;20256;-66
2021/11/15 06:11:52;;;;;;;2.10;2.00;;;7.00;1.00;;;;;;5055649;28;20428;-65
2021/11/15 06:14:17;;;;;;;5.47;3.40;;;7.20;1.00;;;;;;5055136;28;20173;-66
2021/11/15 06:16:43;;;;;;;5.67;5.30;;;7.10;1.00;;;;;;5054487;28;20246;-66
2021/11/15 06:19:08;;;;;;;0.40;0.40;;;7.10;1.00;;;;;;5054179;28;20204;-67
2021/11/15 06:21:34;;;;;;;5.43;5.10;;;7.10;1.00;;;;;;5055223;28;20181;-66
2021/11/15 06:24:01;;;;;;;13.63;1.80;;;7.30;1.00;;;;;;5054111;28;20176;-66
2021/11/15 06:26:28;;;;;;;3.25;1.67;;;7.40;1.00;;;;;;5052915;28;20211;-65
2021/11/15 06:28:54;;;;;;;9.45;7.65;;;7.30;1.00;;;;;;5052819;28;20181;-65
2021/11/15 06:31:20;;;;;;;2.38;2.17;;;7.20;1.00;;;;;;5053886;28;20626;-66
2021/11/15 06:33:49;;;;;;;0.93;0.93;;;7.20;1.00;;;;;;5056281;28;20166;-66
2021/11/15 06:36:22;;;;;;;3.65;2.65;;;7.20;1.00;;;;;;5054179;28;20231;-66
2021/11/15 06:38:49;;;;;;;14.45;8.43;;;7.20;1.00;;;;;;5053626;28;20180;-66
2021/11/15 06:41:14;;;;;;;2.28;2.17;;;7.20;1.00;;;;;;5054292;28;20582;-66
2021/11/15 06:43:40;;;;;;;0.30;0.20;;;7.30;1.00;;;;;;5054437;28;20207;-66
2021/11/15 06:46:06;;;;;;;1.80;1.70;;;7.20;1.00;;;;;;5053314;28;20273;-66
2021/11/15 06:48:37;;;;;;;0.20;0.10;;;7.30;1.00;;;;;;5053722;28;20237;-66
2021/11/15 06:51:04;;;;;;;1.10;1.10;;;7.30;1.00;;;;;;5054186;28;20423;-66
2021/11/15 06:53:33;;;;;;;2.58;2.35;;;7.30;1.00;;;;;;5052474;28;20204;-67
2021/11/15 06:56:00;;;;;;;7.28;6.82;;;7.40;1.00;;;;;;5057519;28;20180;-68
2021/11/15 06:58:27;;;;;;;1.55;1.13;;;7.30;1.00;;;;;;5053571;28;20184;-67
2021/11/15 07:00:53;;;;;;;0.20;0.20;;;7.30;1.00;;;;;;5053382;28;20699;-67
2021/11/15 07:03:19;;;;;;;1.48;1.38;;;7.60;1.00;;;;;;5053900;28;20648;-67
2021/11/15 07:05:45;;;;;;;1.38;1.05;;;7.80;1.00;;;;;;5053285;28;20511;-68
2021/11/15 07:08:11;;;;;;;2.97;2.77;;;7.60;1.00;;;;;;5053635;28;20180;-68
2021/11/15 07:10:37;;;;;;;0.20;0.20;;;7.70;1.00;;;;;;5053836;28;20440;-67
2021/11/15 07:13:03;;;;;;;1.58;0.85;;;7.70;1.00;;;;;;5053665;28;20168;-67
2021/11/15 07:15:30;;;;;;;1.67;1.58;;;7.50;1.00;;;;;;5053412;28;20180;-68
2021/11/15 07:17:55;;;;;;;3.10;2.55;;;7.50;1.00;;;;;;5053128;28;20173;-68
2021/11/15 07:20:21;;;;;;;8.73;2.50;;;7.30;1.00;;;;;;5053510;28;20386;-66
2021/11/15 07:22:48;;;;;;;3.80;3.50;;;7.30;1.00;;;;;;5053430;28;20173;-67
2021/11/15 07:25:17;;;;;;;1.17;1.17;;;7.40;1.00;;;;;;5051804;28;20435;-65
2021/11/15 07:27:43;;;;;;;8.88;3.95;;;7.50;1.00;;;;;;5053211;28;20204;-66
2021/11/15 07:30:10;;;;;;;3.40;2.50;;;7.80;1.00;;;;;;5052299;28;20177;-66
2021/11/15 07:32:35;;;;;;;0.65;0.65;;;7.70;1.00;;;;;;5052257;28;20173;-65
2021/11/15 07:35:01;;;;;;;0.80;0.80;;;7.80;1.00;;;;;;5053431;28;20565;-64
2021/11/15 07:37:26;;;;;;;6.27;5.63;;;7.70;99.90;;;;;;5057692;28;20176;-64
2021/11/15 07:39:52;;;;;;;3.20;2.10;;;7.60;99.90;;;;;;5057222;28;20213;-64
2021/11/15 07:42:19;;;;;;;17.87;5.37;;;7.50;1.00;;;;;;5057141;28;20239;-64
2021/11/15 07:44:45;;;;;;;3.10;2.92;;;7.50;1.00;;;;;;5057209;28;20591;-64
2021/11/15 07:47:14;;;;;;;2.60;2.40;;;7.50;1.00;;;;;;5056855;28;20211;-65
2021/11/15 07:49:40;;;;;;;2.35;2.25;;;7.30;99.90;;;;;;5056629;28;20636;-64
2021/11/15 07:52:05;;;;;;;4.23;3.90;;;7.40;99.90;;;;;;5056856;28;20180;-65
2021/11/15 07:54:31;;;;;;;3.13;3.03;;;7.50;99.90;;;;;;5057250;28;20192;-66
2021/11/15 07:56:58;;;;;;;13.70;10.17;;;7.70;99.90;;;;;;5059597;28;20185;-65
2021/11/15 07:59:24;;;;;;;5.00;4.80;;;7.60;99.90;;;;;;5058042;28;20736;-64
2021/11/15 08:01:50;;;;;;;4.00;3.07;;;7.50;99.90;;;;;;5057928;28;20172;-64
2021/11/15 08:04:15;;;;;;;9.40;4.03;;;7.60;99.90;;;;;;5057020;28;20179;-65
2021/11/15 08:06:41;;;;;;;6.00;4.30;;;7.70;99.90;;;;;;5057075;28;20209;-65
2021/11/15 08:09:07;;;;;;;4.33;1.60;;;7.60;99.90;;;;;;5056352;28;20598;-65
2021/11/15 08:11:35;;;;;;;13.27;6.60;;;7.60;99.90;;;;;;5056494;28;20176;-64
2021/11/15 08:14:00;;;;;;;8.57;6.18;;;7.50;99.90;;;;;;5054355;28;20219;-64
2021/11/15 08:16:26;;;;;;;15.70;8.90;;;7.50;99.90;;;;;;5055464;28;20181;-65
2021/11/15 08:18:51;;;;;;;4.67;4.17;;;7.40;99.90;;;;;;5055953;28;20181;-65
2021/11/15 08:21:21;;;;;;;17.17;6.70;;;7.30;1.00;;;;;;5056244;28;20242;-65
2021/11/15 08:23:48;;;;;;;15.35;7.93;;;7.30;1.00;;;;;;5057951;28;20173;-64
2021/11/15 08:26:27;;;;;;;11.85;4.18;;;7.20;1.00;;;;;;5057833;28;20292;-64
2021/11/15 08:28:58;;;;;;;0.28;0.20;;;7.30;1.00;;;;;;5055923;28;20518;-64
2021/11/15 08:31:24;;;;;;;17.17;5.20;;;7.40;1.00;;;;;;5056128;28;20172;-65
2021/11/15 08:33:50;;;;;;;3.30;1.80;;;7.30;1.00;;;;;;5040949;28;20585;-62
2021/11/15 08:36:15;;;;;;;15.03;9.10;;;7.30;1.00;;;;;;5036148;28;20265;-62
2021/11/15 08:38:53;;;;;;;2.00;1.63;;;7.30;1.00;;;;;;5035714;28;20527;-64
2021/11/15 08:41:26;;;;;;;2.67;2.55;;;7.30;1.00;;;;;;5035930;28;20189;-63
2021/11/15 08:43:56;;;;;;;9.90;6.68;;;7.40;1.00;;;;;;5035779;28;20199;-64
2021/11/15 08:46:24;;;;;;;13.02;6.68;;;7.50;1.00;;;;;;5039872;28;20303;-64
2021/11/15 08:48:49;;;;;;;0.30;0.30;;;7.40;1.00;;;;;;5055422;28;20188;-64
2021/11/15 08:51:18;;;;;;;4.27;3.87;;;7.50;1.00;;;;;;5055770;28;20508;-64
2021/11/15 08:53:44;;;;;;;2.45;1.30;;;7.40;1.00;;;;;;5055544;28;20208;-64
2021/11/15 08:56:10;;;;;;;0.30;0.20;;;7.50;1.00;;;;;;5055911;28;20187;-64
2021/11/15 08:58:37;;;;;;;1.93;1.83;;;7.60;1.00;;;;;;5055605;28;20176;-65
2021/11/15 09:01:03;;;;;;;0.93;0.93;;;7.60;1.00;;;;;;5054466;28;20204;-65
2021/11/15 09:03:29;;;;;;;16.53;3.37;;;7.80;1.00;;;;;;5054492;28;20609;-65
2021/11/15 09:05:55;;;;;;;4.67;3.50;;;7.60;99.90;;;;;;5055193;28;20463;-65
2021/11/15 09:08:22;;;;;;;26.47;10.40;;;7.40;1.00;;;;;;5055496;28;20184;-67
2021/11/15 09:10:48;;;;;;;6.15;3.65;;;7.50;1.00;;;;;;5055314;28;20193;-65
2021/11/15 09:13:14;;;;;;;5.40;3.43;;;7.40;1.00;;;;;;5055448;28;20208;-63
2021/11/15 09:15:40;;;;;;;3.25;3.03;;;7.50;1.00;;;;;;5055377;28;20173;-63
2021/11/15 09:18:06;;;;;;;17.75;8.50;;;7.70;1.00;;;;;;5055126;28;20252;-63
2021/11/15 09:20:32;;;;;;;6.67;4.00;;;7.60;1.00;;;;;;5054847;28;20279;-67
2021/11/15 09:22:58;;;;;;;9.53;2.77;;;7.60;99.90;;;;;;5055116;28;20423;-64
2021/11/15 09:25:23;;;;;;;4.30;3.87;;;7.60;99.90;;;;;;5055016;28;20181;-64
2021/11/15 09:27:49;;;;;;;0.30;0.30;;;7.70;99.90;;;;;;5055180;28;20510;-67
2021/11/15 09:30:16;;;;;;;1.97;1.90;;;7.80;99.90;;;;;;5055290;28;20458;-64
2021/11/15 09:32:43;;;;;;;1.85;1.75;;;7.90;99.90;;;;;;5055225;28;20177;-66
2021/11/15 09:35:09;;;;;;;4.20;4.00;;;8.00;99.90;;;;;;5055294;28;20189;-69
2021/11/15 09:37:35;;;;;;;3.20;0.95;;;7.90;99.90;;;;;;5055356;28;20195;-69
2021/11/15 09:40:02;;;;;;;5.37;3.40;;;7.90;99.90;;;;;;5054613;28;20181;-67
2021/11/15 09:42:28;;;;;;;3.90;3.70;;;8.00;99.90;;;;;;5054751;28;20176;-67
2021/11/15 09:44:53;;;;;;;4.07;3.40;;;8.10;99.90;;;;;;5054816;28;20568;-67
2021/11/15 09:47:20;;;;;;;12.67;7.90;;;8.20;99.90;;;;;;5055007;28;20642;-69
2021/11/15 09:49:46;;;;;;;4.93;4.10;;;8.00;99.90;;;;;;5054766;28;20637;-66
2021/11/15 09:52:12;;;;;;;1.08;1.08;;;7.90;99.90;;;;;;5054750;28;20177;-66
2021/11/15 09:54:38;;;;;;;13.27;5.47;;;7.90;99.90;;;;;;5054821;28;20502;-66
2021/11/15 09:57:04;;;;;;;9.77;5.40;;;7.90;99.90;;;;;;5055104;28;20184;-66
2021/11/15 09:59:31;;;;;;;15.73;8.80;;;8.10;99.90;;;;;;5053814;28;20207;-66
2021/11/15 10:01:58;;;;;;;2.08;1.98;;;8.00;99.90;;;;;;5049724;28;20200;-65
2021/11/15 10:04:25;;;;;;;3.97;2.58;;;8.10;99.90;;;;;;5052590;28;20200;-66
2021/11/15 10:06:56;;;;;;;1.63;1.52;;;8.10;99.90;;;;;;5054097;28;20613;-66
2021/11/15 10:09:30;;;;;;;0.25;0.25;;;8.10;99.90;;;;;;5054550;28;20670;-67
2021/11/15 10:11:57;;;;;;;4.95;4.03;;;8.00;99.90;;;;;;5053098;28;20224;-68
2021/11/15 10:14:24;;;;;;;8.77;4.90;;;7.90;99.90;;;;;;5054506;28;20181;-67
2021/11/15 10:16:53;;;;;;;12.60;3.72;;;7.90;99.90;;;;;;5053875;28;20190;-66
2021/11/15 10:19:21;;;;;;;5.32;2.97;;;7.90;99.90;;;;;;5054729;28;20215;-66
2021/11/15 10:21:50;;;;;;;1.85;1.05;;;7.80;99.90;;;;;;5054285;28;20181;-67
2021/11/15 10:24:17;;;;;;;1.75;1.52;;;7.80;99.90;;;;;;5052700;28;20180;-66
2021/11/15 10:26:46;;;;;;;0.47;0.47;;;8.10;99.90;;;;;;5053515;28;20656;-66
2021/11/15 10:29:22;;;;;;;6.50;4.70;;;8.20;99.90;;;;;;5053430;28;20177;-66
2021/11/15 10:31:58;;;;;;;5.63;4.13;;;8.10;64.90;;;;;;5053799;28;20184;-66
2021/11/15 10:34:37;;;;;;;0.20;0.20;;;7.90;99.90;;;;;;5034250;28;20254;-67
2021/11/15 10:37:32;;;;;;;3.22;1.98;;;8.00;99.90;;;;;;5033550;28;20228;-67
2021/11/15 10:40:03;;;;;;;15.00;5.07;;;8.00;99.90;;;;;;5033063;28;20288;-67
2021/11/15 10:42:32;;;;;;;7.53;2.85;;;7.90;99.90;;;;;;5033629;28;20516;-67
2021/11/15 10:45:14;;;;;;;4.10;3.40;;;8.00;99.90;;;;;;5033501;28;20615;-68
2021/11/15 10:47:48;;;;;;;4.35;3.92;;;8.10;99.90;;;;;;5033423;28;20219;-67
2021/11/15 10:50:23;;;;;;;10.55;2.83;;;7.90;99.90;;;;;;5034160;28;20283;-69
2021/11/15 10:53:24;;;;;;;9.43;6.03;;;7.90;99.90;;;;;;5033475;28;20642;-68
2021/11/15 10:56:40;;;;;;;8.07;4.68;;;8.10;99.90;;;;;;5034156;28;20191;-64
2021/11/15 10:59:00;;;;;;;14.23;8.00;;;8.00;56.00;;;;;;5032990;28;20188;-63
2021/11/15 11:01:34;;;;;;;11.00;6.77;;;8.00;83.80;;;;;;5035012;28;20209;-63
2021/11/15 11:04:23;;;;;;;3.75;2.70;;;8.00;1.00;;;;;;5063901;28;20181;-64
2021/11/15 11:07:07;;;;;;;10.73;3.63;;;8.10;11.70;;;;;;5053499;28;20288;-63
2021/11/15 11:09:39;;;;;;;5.82;5.22;;;8.10;1.00;;;;;;5053451;28;20188;-67
2021/11/15 11:12:14;;;;;;;0.68;0.68;;;8.30;1.00;;;;;;5052946;28;20516;-66
2021/11/15 11:14:41;;;;;;;15.98;7.07;;;8.20;1.00;;;;;;5053111;28;20206;-65
2021/11/15 11:17:07;;;;;;;23.13;6.07;;;8.20;99.90;;;;;;5053314;28;20628;-65
2021/11/15 11:23:15;;;;;;;19.23;6.82;;;8.20;99.90;;;;;;5053757;28;20191;-65
2021/11/15 11:25:41;;;;;;;9.00;6.55;;;8.10;99.90;;;;;;5053121;28;20180;-64
2021/11/15 11:28:36;;;;;;;1.50;1.40;;;8.00;99.90;;;;;;5053560;28;20555;-64
2021/11/15 11:31:04;;;;;;;6.63;3.85;;;8.00;99.90;;;;;;5054097;28;20170;-65
2021/11/15 11:33:31;;;;;;;1.40;1.20;;;8.00;99.90;;;;;;5041832;28;20185;-65
2021/11/15 11:35:59;;;;;;;2.15;2.05;;;8.10;99.90;;;;;;5033720;28;20265;-65
2021/11/15 11:38:25;;;;;;;2.78;2.60;;;8.30;99.90;;;;;;5033500;28;20213;-65
2021/11/15 11:40:52;;;;;;;14.00;7.70;;;8.40;1.00;;;;;;5033402;28;20287;-64
2021/11/15 11:43:18;;;;;;;3.05;2.40;;;8.30;1.00;;;;;;5034437;28;20901;-65
2021/11/15 11:45:44;;;;;;;5.20;4.70;;;8.30;1.00;;;;;;5032802;28;20192;-63
2021/11/15 11:48:11;;;;;;;6.20;3.40;;;8.20;99.90;;;;;;5033126;28;20184;-63
2021/11/15 11:50:37;;;;;;;8.98;6.50;;;8.10;59.50;;;;;;5032916;28;20183;-64
2021/11/15 11:53:08;;;;;;;3.67;3.57;;;7.80;1.00;;;;;;5041865;28;20200;-64
2021/11/15 11:55:36;;;;;;;8.43;6.25;;;7.90;99.90;;;;;;5052065;28;20445;-63
2021/11/15 11:58:34;;;;;;;0.70;0.70;;;8.10;99.90;;;;;;5057752;28;20223;-63
2021/11/15 12:01:02;;;;;;;0.93;0.60;;;8.20;99.90;;;;;;5040972;28;20187;-64
2021/11/15 12:03:29;;;;;;;1.67;1.58;;;8.30;99.90;;;;;;5066915;28;20180;-66
2021/11/15 12:05:57;;;;;;;6.28;4.47;;;8.30;1.00;;;;;;5050431;28;20197;-67
2021/11/15 12:08:52;;;;;;;0.60;0.60;;;8.20;1.00;;;;;;5042026;28;20208;-66
2021/11/15 12:11:31;;;;;;;2.40;1.73;;;8.10;99.90;;;;;;5044407;28;20276;-67
2021/11/15 12:13:58;;;;;;;5.32;4.13;;;8.20;99.90;;;;;;5048030;28;20180;-66
2021/11/15 12:16:24;;;;;;;0.40;0.32;;;8.00;99.90;;;;;;5052365;28;20193;-62
2021/11/15 12:18:55;;;;;;;6.57;4.43;;;8.00;99.90;;;;;;5053865;28;20184;-64
2021/11/15 12:21:21;;;;;;;1.42;1.33;;;8.10;99.90;;;;;;5053616;28;20457;-64
2021/11/15 12:23:55;;;;;;;3.37;2.13;;;8.10;99.90;;;;;;5056622;28;20200;-64
2021/11/15 12:26:24;;;;;;;3.70;3.47;;;8.20;99.90;;;;;;5055134;28;20222;-65
2021/11/15 12:28:57;;;;;;;0.30;0.20;;;8.20;99.90;;;;;;5055835;28;20630;-64
2021/11/15 12:31:38;;;;;;;2.20;2.05;;;8.30;99.90;;;;;;5063752;28;20184;-65
2021/11/15 12:34:05;;;;;;;3.00;2.78;;;8.20;99.90;;;;;;5076107;28;20171;-67
2021/11/15 12:36:40;;;;;;;3.45;2.75;;;8.20;99.90;;;;;;5076359;28;20178;-67
2021/11/15 12:39:16;;;;;;;2.80;2.25;;;8.30;99.90;;;;;;5075890;28;20236;-67
2021/11/15 12:41:50;;;;;;;10.45;9.52;;;8.40;99.90;;;;;;5074462;28;20221;-69
2021/11/15 12:44:28;;;;;;;9.80;5.60;;;8.20;99.90;;;;;;5053827;28;20535;-68
2021/11/15 12:46:54;;;;;;;0.77;0.77;;;7.90;99.90;;;;;;5050757;28;20431;-67
2021/11/15 12:49:29;;;;;;;4.85;4.38;;;8.00;1.00;;;;;;5060994;28;20323;-64
2021/11/15 12:52:07;;;;;;;3.80;3.20;;;8.10;99.90;;;;;;5058794;28;20613;-66
2021/11/15 12:54:35;;;;;;;5.38;2.30;;;8.00;99.90;;;;;;5069667;28;20538;-67
2021/11/15 12:57:07;;;;;;;12.70;6.40;;;8.10;99.90;;;;;;5064694;28;20525;-66
2021/11/15 12:59:34;;;;;;;4.95;4.50;;;8.00;99.90;;;;;;5073993;28;20180;-66
2021/11/15 13:02:01;;;;;;;0.50;0.50;;;8.10;99.90;;;;;;5074062;28;20284;-66
2021/11/15 13:04:27;;;;;;;8.27;4.65;;;8.20;99.90;;;;;;5061816;28;20184;-66
2021/11/15 13:06:53;;;;;;;2.40;2.30;;;8.20;99.90;;;;;;5075532;28;20238;-61
2021/11/15 13:09:19;;;;;;;1.37;1.37;;;8.30;99.90;;;;;;5075831;28;20242;-67